createdAt,value
2018-09-11T00:00:03.708Z,16.50
2018-09-11T00:02:32.080Z,16.40
2018-09-11T00:05:00.691Z,16.40
2018-09-11T00:07:29.092Z,16.40
2018-09-11T00:09:57.440Z,16.40
2018-09-11T00:12:25.809Z,16.40
2018-09-11T00:14:54.396Z,16.30
2018-09-11T00:17:22.849Z,16.40
2018-09-11T00:19:51.225Z,16.40
2018-09-11T00:22:19.655Z,16.40
2018-09-11T00:24:48.033Z,16.30
2018-09-11T00:27:16.709Z,16.30
2018-09-11T00:29:45.097Z,16.30
2018-09-11T00:32:13.476Z,16.30
2018-09-11T00:34:41.913Z,16.30
2018-09-11T00:37:10.316Z,16.40
2018-09-11T00:39:38.683Z,16.30
2018-09-11T00:42:07.237Z,16.30
2018-09-11T00:44:35.632Z,16.40
2018-09-11T00:47:04.017Z,16.40
2018-09-11T00:49:32.566Z,16.40
2018-09-11T00:52:01.037Z,16.40
2018-09-11T00:54:29.353Z,16.40
2018-09-11T00:56:57.793Z,16.40
2018-09-11T00:59:26.156Z,16.40
2018-09-11T01:01:54.693Z,16.40
2018-09-11T01:04:23.292Z,16.40
2018-09-11T01:06:51.700Z,16.50
2018-09-11T01:09:20.113Z,16.50
2018-09-11T01:11:48.477Z,16.50
2018-09-11T01:14:16.873Z,16.40
2018-09-11T01:16:45.260Z,16.50
2018-09-11T01:19:13.612Z,16.40
2018-09-11T01:21:42.138Z,16.50
2018-09-11T01:24:10.525Z,16.40
2018-09-11T01:26:38.913Z,16.40
2018-09-11T01:29:07.621Z,16.40
2018-09-11T01:31:35.996Z,16.50
2018-09-11T01:34:04.418Z,16.50
2018-09-11T01:36:32.829Z,16.50
2018-09-11T01:39:01.185Z,16.50
2018-09-11T01:41:29.541Z,16.50
2018-09-11T01:43:57.920Z,16.50
2018-09-11T01:46:26.363Z,16.50
2018-09-11T01:48:54.765Z,16.50
2018-09-11T01:51:23.173Z,16.50
2018-09-11T01:53:51.584Z,16.50
2018-09-11T01:56:19.995Z,16.50
2018-09-11T01:58:48.364Z,16.50
2018-09-11T02:01:16.732Z,16.50
2018-09-11T02:03:45.183Z,16.50
2018-09-11T02:06:13.594Z,16.50
2018-09-11T02:08:41.989Z,16.50
2018-09-11T02:11:10.384Z,16.50
2018-09-11T02:13:38.936Z,16.60
2018-09-11T02:16:07.921Z,16.60
2018-09-11T02:18:36.361Z,16.60
2018-09-11T02:21:04.723Z,16.50
2018-09-11T02:23:33.108Z,16.60
2018-09-11T02:26:01.541Z,16.60
2018-09-11T02:28:29.922Z,16.60
2018-09-11T02:30:58.350Z,16.60
2018-09-11T02:33:26.781Z,16.50
2018-09-11T02:35:55.292Z,16.60
2018-09-11T02:38:23.618Z,16.50
2018-09-11T02:40:52.000Z,16.50
2018-09-11T02:43:20.428Z,16.40
2018-09-11T02:45:48.798Z,16.40
2018-09-11T02:48:17.178Z,16.40
2018-09-11T02:50:45.604Z,16.40
2018-09-11T02:53:14.028Z,16.30
2018-09-11T02:55:42.376Z,16.40
2018-09-11T02:58:10.826Z,16.30
2018-09-11T03:00:39.363Z,16.30
2018-09-11T03:03:08.131Z,16.30
2018-09-11T03:05:36.504Z,16.30
2018-09-11T03:08:04.893Z,16.20
2018-09-11T03:10:33.344Z,16.20
2018-09-11T03:13:01.797Z,16.10
2018-09-11T03:15:30.199Z,16.10
2018-09-11T03:17:58.575Z,16.10
2018-09-11T03:20:26.980Z,16.10
2018-09-11T03:22:55.368Z,16.00
2018-09-11T03:25:23.772Z,16.00
2018-09-11T03:27:52.179Z,15.90
2018-09-11T03:30:20.638Z,15.90
2018-09-11T03:32:49.155Z,15.90
2018-09-11T03:35:17.535Z,15.90
2018-09-11T03:37:45.969Z,15.90
2018-09-11T03:40:14.409Z,15.90
2018-09-11T03:42:42.817Z,15.90
2018-09-11T03:45:11.277Z,15.90
2018-09-11T03:47:40.285Z,15.90
2018-09-11T03:50:08.677Z,15.90
2018-09-11T03:52:37.121Z,16.00
2018-09-11T03:55:06.004Z,15.90
2018-09-11T03:57:34.386Z,16.00
2018-09-11T04:00:02.932Z,16.00
2018-09-11T04:02:31.353Z,16.00
2018-09-11T04:04:59.764Z,16.00
2018-09-11T04:07:28.189Z,16.00
2018-09-11T04:09:56.672Z,16.00
2018-09-11T04:12:25.136Z,16.00
2018-09-11T04:14:53.608Z,16.00
2018-09-11T04:17:26.284Z,16.00
2018-09-11T04:19:54.740Z,16.00
2018-09-11T04:22:23.176Z,16.10
2018-09-11T04:24:51.626Z,16.10
2018-09-11T04:27:20.099Z,16.10
2018-09-11T04:29:48.499Z,16.10
2018-09-11T04:32:16.883Z,16.10
2018-09-11T04:34:45.350Z,16.10
2018-09-11T04:37:13.725Z,16.00
2018-09-11T04:39:42.108Z,16.00
2018-09-11T04:42:11.215Z,16.00
2018-09-11T04:44:39.737Z,16.00
2018-09-11T04:47:08.099Z,16.00
2018-09-11T04:49:36.681Z,16.10
2018-09-11T04:52:05.195Z,16.00
2018-09-11T04:54:33.696Z,16.00
2018-09-11T04:57:02.107Z,16.00
2018-09-11T04:59:30.473Z,15.90
2018-09-11T05:01:58.896Z,15.90
2018-09-11T05:04:27.349Z,15.90
2018-09-11T05:06:55.841Z,15.90
2018-09-11T05:09:24.250Z,15.90
2018-09-11T05:11:52.645Z,15.90
2018-09-11T05:14:21.028Z,15.90
2018-09-11T05:16:49.389Z,15.90
2018-09-11T05:19:17.857Z,15.80
2018-09-11T05:21:46.321Z,15.80
2018-09-11T05:24:14.817Z,15.80
2018-09-11T05:26:43.945Z,15.80
2018-09-11T05:29:12.351Z,15.90
2018-09-11T05:31:40.740Z,15.90
2018-09-11T05:34:09.177Z,15.90
2018-09-11T05:36:37.621Z,15.90
2018-09-11T05:39:07.597Z,15.90
2018-09-11T05:41:36.007Z,15.90
2018-09-11T05:44:04.796Z,15.90
2018-09-11T05:46:33.213Z,15.90
2018-09-11T05:49:01.797Z,15.90
2018-09-11T05:51:30.208Z,15.90
2018-09-11T05:53:58.596Z,16.00
2018-09-11T05:56:27.028Z,16.00
2018-09-11T05:58:55.436Z,16.00
2018-09-11T06:01:23.840Z,16.10
2018-09-11T06:03:52.221Z,16.10
2018-09-11T06:06:20.710Z,16.20
2018-09-11T06:08:49.107Z,16.20
2018-09-11T06:11:17.533Z,16.30
2018-09-11T06:13:46.033Z,16.20
2018-09-11T06:16:14.644Z,16.20
2018-09-11T06:18:43.000Z,16.30
2018-09-11T06:21:11.381Z,16.30
2018-09-11T06:23:39.818Z,16.30
2018-09-11T06:26:08.292Z,16.30
2018-09-11T06:28:36.712Z,16.30
2018-09-11T06:31:05.534Z,16.30
2018-09-11T06:33:33.932Z,16.30
2018-09-11T06:36:02.394Z,16.30
2018-09-11T06:38:30.792Z,16.30
2018-09-11T06:40:59.374Z,16.40
2018-09-11T06:43:27.740Z,16.40
2018-09-11T06:45:56.124Z,16.50
2018-09-11T06:48:24.582Z,16.50
2018-09-11T06:50:53.002Z,16.50
2018-09-11T06:53:21.458Z,16.60
2018-09-11T06:55:49.876Z,16.60
2018-09-11T06:58:18.262Z,16.60
2018-09-11T07:00:46.661Z,16.60
2018-09-11T07:03:15.518Z,16.60
2018-09-11T07:05:43.981Z,16.70
2018-09-11T07:08:12.375Z,16.80
2018-09-11T07:10:40.818Z,16.80
2018-09-11T07:13:09.521Z,16.80
2018-09-11T07:15:37.958Z,16.80
2018-09-11T07:18:06.520Z,16.90
2018-09-11T07:20:34.917Z,17.00
2018-09-11T07:23:03.341Z,17.00
2018-09-11T07:25:31.856Z,17.20
2018-09-11T07:28:00.313Z,17.30
2018-09-11T07:30:28.753Z,17.40
2018-09-11T07:32:57.167Z,17.50
2018-09-11T07:35:25.528Z,17.40
2018-09-11T07:37:53.970Z,17.40
2018-09-11T07:40:22.420Z,17.40
2018-09-11T07:42:50.839Z,17.40
2018-09-11T07:45:19.248Z,17.40
2018-09-11T07:47:47.697Z,17.50
2018-09-11T07:50:16.093Z,17.40
2018-09-11T07:52:44.557Z,17.40
2018-09-11T07:55:13.101Z,17.40
2018-09-11T07:57:41.525Z,17.40
2018-09-11T08:00:10.006Z,17.50
2018-09-11T08:02:38.400Z,17.60
2018-09-11T08:05:06.883Z,17.70
2018-09-11T08:07:35.281Z,17.80
2018-09-11T08:10:03.728Z,17.90
2018-09-11T08:12:32.080Z,17.90
2018-09-11T08:15:00.525Z,18.00
2018-09-11T08:17:28.892Z,18.00
2018-09-11T08:19:57.373Z,18.00
2018-09-11T08:22:25.797Z,18.00
2018-09-11T08:24:54.160Z,18.00
2018-09-11T08:27:22.571Z,18.10
2018-09-11T08:29:50.965Z,18.30
2018-09-11T08:32:19.375Z,18.60
2018-09-11T08:34:47.793Z,18.80
2018-09-11T08:37:16.365Z,19.10
2018-09-11T08:39:44.726Z,19.50
2018-09-11T08:42:13.149Z,19.70
2018-09-11T08:44:41.721Z,19.90
2018-09-11T08:47:10.115Z,20.00
2018-09-11T08:49:38.606Z,20.00
2018-09-11T08:52:07.328Z,20.00
2018-09-11T08:54:36.165Z,20.00
2018-09-11T08:57:04.580Z,20.00
2018-09-11T08:59:33.081Z,20.00
2018-09-11T09:02:01.448Z,20.10
2018-09-11T09:04:29.876Z,20.30
2018-09-11T09:06:58.344Z,20.50
2018-09-11T09:09:26.803Z,20.80
2018-09-11T09:11:55.164Z,21.10
2018-09-11T09:14:23.598Z,21.20
2018-09-11T09:16:51.972Z,21.00
2018-09-11T09:19:20.341Z,20.90
2018-09-11T09:21:48.735Z,20.80
2018-09-11T09:24:17.175Z,20.80
2018-09-11T09:26:45.516Z,20.80
2018-09-11T09:29:13.873Z,20.60
2018-09-11T09:31:42.265Z,20.60
2018-09-11T09:34:10.592Z,20.60
2018-09-11T09:36:39.103Z,20.50
2018-09-11T09:39:07.910Z,20.30
2018-09-11T09:41:36.295Z,20.40
2018-09-11T09:44:04.776Z,20.50
2018-09-11T09:46:33.108Z,20.60
2018-09-11T09:49:01.498Z,20.70
2018-09-11T09:51:29.962Z,20.70
2018-09-11T09:53:58.670Z,20.80
2018-09-11T09:56:27.049Z,20.90
2018-09-11T09:58:55.468Z,20.80
2018-09-11T10:01:29.249Z,20.90
2018-09-11T10:03:57.680Z,21.00
2018-09-11T10:06:26.026Z,21.00
2018-09-11T10:08:54.379Z,21.00
2018-09-11T10:11:22.871Z,21.00
2018-09-11T10:13:51.261Z,21.00
2018-09-11T10:16:19.649Z,21.00
2018-09-11T10:18:48.054Z,21.00
2018-09-11T10:21:16.422Z,21.00
2018-09-11T10:23:44.949Z,21.00
2018-09-11T10:26:13.302Z,20.90
2018-09-11T10:28:41.713Z,20.90
2018-09-11T10:31:10.190Z,20.90
2018-09-11T10:33:38.639Z,20.80
2018-09-11T10:36:07.015Z,20.90
2018-09-11T10:38:35.401Z,20.90
2018-09-11T10:41:03.872Z,20.90
2018-09-11T10:43:32.277Z,21.00
2018-09-11T10:46:00.742Z,21.10
2018-09-11T10:48:29.229Z,21.30
2018-09-11T10:50:57.589Z,21.30
2018-09-11T10:53:26.012Z,21.20
2018-09-11T10:55:54.412Z,21.10
2018-09-11T10:58:22.759Z,21.10
2018-09-11T11:00:51.201Z,21.00
2018-09-11T11:03:20.448Z,21.00
2018-09-11T11:05:49.833Z,21.00
2018-09-11T11:08:18.286Z,21.10
2018-09-11T11:10:46.664Z,21.00
2018-09-11T11:13:15.089Z,21.00
2018-09-11T11:15:43.506Z,21.00
2018-09-11T11:18:11.840Z,21.10
2018-09-11T11:20:40.246Z,21.20
2018-09-11T11:23:08.645Z,21.20
2018-09-11T11:25:37.013Z,21.10
2018-09-11T11:28:05.537Z,21.10
2018-09-11T11:30:33.935Z,21.10
2018-09-11T11:33:02.332Z,21.10
2018-09-11T11:35:30.756Z,21.30
2018-09-11T11:37:59.176Z,21.30
2018-09-11T11:40:27.628Z,21.40
2018-09-11T11:42:56.057Z,21.50
2018-09-11T11:45:24.485Z,21.50
2018-09-11T11:47:52.992Z,21.40
2018-09-11T11:50:21.368Z,21.40
2018-09-11T11:52:50.028Z,21.40
2018-09-11T11:55:18.492Z,21.40
2018-09-11T11:57:46.853Z,21.40
2018-09-11T12:00:15.301Z,21.40
2018-09-11T12:02:43.728Z,21.20
2018-09-11T12:05:12.134Z,21.20
2018-09-11T12:07:40.565Z,21.10
2018-09-11T12:10:08.962Z,21.00
2018-09-11T12:12:37.444Z,21.00
2018-09-11T12:15:06.374Z,20.90
2018-09-11T12:17:34.769Z,20.90
2018-09-11T12:20:03.213Z,21.00
2018-09-11T12:22:31.596Z,21.00
2018-09-11T12:25:00.024Z,21.10
2018-09-11T12:27:28.453Z,21.00
2018-09-11T12:29:56.853Z,21.10
2018-09-11T12:32:25.210Z,21.20
2018-09-11T12:34:53.588Z,21.20
2018-09-11T12:37:21.976Z,21.20
2018-09-11T12:39:50.349Z,21.30
2018-09-11T12:42:18.772Z,21.30
2018-09-11T12:44:47.160Z,21.40
2018-09-11T12:47:15.952Z,21.50
2018-09-11T12:49:44.121Z,21.60
2018-09-11T12:52:12.473Z,21.70
2018-09-11T12:54:40.866Z,21.80
2018-09-11T12:57:09.275Z,21.70
2018-09-11T12:59:37.645Z,21.60
2018-09-11T13:02:06.009Z,21.60
2018-09-11T13:04:34.418Z,21.60
2018-09-11T13:07:02.828Z,21.50
2018-09-11T13:09:31.298Z,21.50
2018-09-11T13:11:59.648Z,21.50
2018-09-11T13:14:28.037Z,21.40
2018-09-11T13:16:56.484Z,21.40
2018-09-11T13:19:24.884Z,21.40
2018-09-11T13:21:53.262Z,21.40
2018-09-11T13:24:21.700Z,21.30
2018-09-11T13:26:50.121Z,21.40
2018-09-11T13:29:18.468Z,21.40
2018-09-11T13:31:46.940Z,21.40
2018-09-11T13:34:15.329Z,21.40
2018-09-11T13:36:43.676Z,21.40
2018-09-11T13:39:12.133Z,21.50
2018-09-11T13:41:40.599Z,21.50
2018-09-11T13:44:09.123Z,21.50
2018-09-11T13:46:37.566Z,21.40
2018-09-11T13:49:06.000Z,21.40
2018-09-11T13:51:34.424Z,21.40
2018-09-11T13:54:02.833Z,21.30
2018-09-11T13:56:31.184Z,21.30
2018-09-11T13:58:59.540Z,21.30
2018-09-11T14:01:27.941Z,21.30
2018-09-11T14:03:56.317Z,21.30
2018-09-11T14:06:24.777Z,21.30
2018-09-11T14:08:53.214Z,21.20
2018-09-11T14:11:21.924Z,21.30
2018-09-11T14:13:50.404Z,21.30
2018-09-11T14:16:19.008Z,21.30
2018-09-11T14:18:47.396Z,21.20
2018-09-11T14:21:15.927Z,21.20
2018-09-11T14:23:50.928Z,21.20
2018-09-11T14:26:19.344Z,21.20
2018-09-11T14:28:47.749Z,21.30
2018-09-11T14:31:16.143Z,21.30
2018-09-11T14:33:44.534Z,21.20
2018-09-11T14:36:12.992Z,21.20
2018-09-11T14:38:41.340Z,21.20
2018-09-11T14:41:09.716Z,21.20
2018-09-11T14:43:38.116Z,21.20
2018-09-11T14:46:06.481Z,21.20
2018-09-11T14:48:34.893Z,21.20
2018-09-11T14:51:03.372Z,21.20
2018-09-11T14:53:31.736Z,21.20
2018-09-11T14:56:00.269Z,21.20
2018-09-11T14:58:28.632Z,21.10
2018-09-11T15:00:58.079Z,21.10
2018-09-11T15:03:26.470Z,21.10
2018-09-11T15:05:54.851Z,21.10
2018-09-11T15:08:24.052Z,21.00
2018-09-11T15:10:52.854Z,21.00
2018-09-11T15:13:21.288Z,21.00
2018-09-11T15:15:49.913Z,21.00
2018-09-11T15:18:18.328Z,21.00
2018-09-11T15:20:46.693Z,21.00
2018-09-11T15:23:15.156Z,20.90
2018-09-11T15:25:43.547Z,20.90
2018-09-11T15:28:11.985Z,20.90
2018-09-11T15:30:40.478Z,20.90
2018-09-11T15:33:08.862Z,20.90
2018-09-11T15:35:37.301Z,20.80
2018-09-11T15:38:05.775Z,20.80
2018-09-11T15:40:34.144Z,20.80
2018-09-11T15:43:02.714Z,20.80
2018-09-11T15:45:31.209Z,20.70
2018-09-11T15:47:59.712Z,20.70
2018-09-11T15:50:28.124Z,20.70
2018-09-11T15:52:56.547Z,20.70
2018-09-11T15:55:24.954Z,20.70
2018-09-11T15:57:53.372Z,20.70
2018-09-11T16:00:21.896Z,20.60
2018-09-11T16:02:50.353Z,20.60
2018-09-11T16:05:18.753Z,20.60
2018-09-11T16:07:47.172Z,20.60
2018-09-11T16:10:15.553Z,20.50
2018-09-11T16:12:43.928Z,20.50
2018-09-11T16:15:12.372Z,20.50
2018-09-11T16:17:40.785Z,20.40
2018-09-11T16:20:09.167Z,20.40
2018-09-11T16:22:37.583Z,20.40
2018-09-11T16:25:06.072Z,20.40
2018-09-11T16:27:34.626Z,20.40
2018-09-11T16:30:03.088Z,20.40
2018-09-11T16:32:31.483Z,20.40
2018-09-11T16:34:59.957Z,20.40
2018-09-11T16:37:31.732Z,20.30
2018-09-11T16:40:00.247Z,20.30
2018-09-11T16:42:28.640Z,20.30
2018-09-11T16:44:57.089Z,20.30
2018-09-11T16:47:25.472Z,20.20
2018-09-11T16:49:53.897Z,20.20
2018-09-11T16:52:24.347Z,20.20
2018-09-11T16:54:53.632Z,20.20
2018-09-11T16:57:22.090Z,20.20
2018-09-11T16:59:50.554Z,20.20
2018-09-11T17:02:19.026Z,20.20
2018-09-11T17:04:47.460Z,20.10
2018-09-11T17:07:15.952Z,20.10
2018-09-11T17:09:44.406Z,20.00
2018-09-11T17:12:12.824Z,20.00
2018-09-11T17:14:41.255Z,20.00
2018-09-11T17:17:09.744Z,20.00
2018-09-11T17:19:38.308Z,19.90
2018-09-11T17:22:06.908Z,19.90
2018-09-11T17:24:35.337Z,19.90
2018-09-11T17:27:03.752Z,19.80
2018-09-11T17:29:32.217Z,19.80
2018-09-11T17:32:00.637Z,19.80
2018-09-11T17:34:29.027Z,19.80
2018-09-11T17:36:57.584Z,19.70
2018-09-11T17:39:26.072Z,19.80
2018-09-11T17:41:54.503Z,19.70
2018-09-11T17:44:22.981Z,19.70
2018-09-11T17:46:51.381Z,19.60
2018-09-11T17:49:19.816Z,19.70
2018-09-11T17:51:48.296Z,19.60
2018-09-11T17:54:16.681Z,19.60
2018-09-11T17:56:45.412Z,19.50
2018-09-11T17:59:13.988Z,19.50
2018-09-11T18:01:42.509Z,19.50
2018-09-11T18:04:10.989Z,19.50
2018-09-11T18:06:39.438Z,19.50
2018-09-11T18:09:08.438Z,19.40
2018-09-11T18:11:36.927Z,19.40
2018-09-11T18:14:05.389Z,19.40
2018-09-11T18:16:33.885Z,19.40
2018-09-11T18:19:02.388Z,19.40
2018-09-11T18:21:31.316Z,19.40
2018-09-11T18:23:59.874Z,19.40
2018-09-11T18:26:28.307Z,19.30
2018-09-11T18:28:56.757Z,19.20
2018-09-11T18:31:25.206Z,19.20
2018-09-11T18:33:53.621Z,19.20
2018-09-11T18:36:22.089Z,19.20
2018-09-11T18:38:50.633Z,19.20
2018-09-11T18:41:19.065Z,19.20
2018-09-11T18:43:47.528Z,19.20
2018-09-11T18:46:16.522Z,19.10
2018-09-11T18:48:45.531Z,19.10
2018-09-11T18:51:14.909Z,19.10
2018-09-11T18:53:44.832Z,19.00
2018-09-11T18:56:13.816Z,19.00
2018-09-11T18:58:43.077Z,19.00
2018-09-11T19:01:12.034Z,19.00
2018-09-11T19:03:41.009Z,19.00
2018-09-11T19:06:10.113Z,19.00
2018-09-11T19:08:39.059Z,19.00
2018-09-11T19:11:07.535Z,19.00
2018-09-11T19:13:35.896Z,19.00
2018-09-11T19:16:04.393Z,18.90
2018-09-11T19:18:32.818Z,19.00
2018-09-11T19:21:01.220Z,19.00
2018-09-11T19:23:30.470Z,19.00
2018-09-11T19:26:00.371Z,19.00
2018-09-11T19:28:30.387Z,19.00
2018-09-11T19:31:00.109Z,19.00
2018-09-11T19:33:29.977Z,19.00
2018-09-11T19:40:58.687Z,19.00
2018-09-11T19:43:27.766Z,19.10
2018-09-11T19:45:57.048Z,19.10
2018-09-11T19:48:26.394Z,19.10
2018-09-11T19:50:54.852Z,19.10
2018-09-11T19:53:24.099Z,19.10
2018-09-11T19:55:53.148Z,19.20
2018-09-11T19:58:22.182Z,19.20
2018-09-11T20:00:50.997Z,19.20
2018-09-11T20:03:20.367Z,19.20
2018-09-11T20:05:49.671Z,19.20
2018-09-11T20:08:18.528Z,19.20
2018-09-11T20:10:47.800Z,19.20
2018-09-11T20:13:17.774Z,19.20
2018-09-11T20:15:47.549Z,19.20
2018-09-11T20:18:16.719Z,19.20
2018-09-11T20:20:46.216Z,19.20
2018-09-11T20:23:14.655Z,19.30
2018-09-11T20:25:43.152Z,19.30
2018-09-11T20:28:11.593Z,19.30
2018-09-11T20:30:39.978Z,19.30
2018-09-11T20:33:08.458Z,19.20
2018-09-11T20:35:36.844Z,19.20
2018-09-11T20:38:05.370Z,19.20
2018-09-11T20:40:33.821Z,19.20
2018-09-11T20:43:02.305Z,19.20
2018-09-11T20:45:30.670Z,19.20
2018-09-11T20:48:00.009Z,19.10
2018-09-11T20:50:28.389Z,19.10
2018-09-11T20:52:56.784Z,19.10
2018-09-11T20:55:25.229Z,19.10
2018-09-11T20:57:53.592Z,19.10
2018-09-11T21:00:21.955Z,19.10
2018-09-11T21:02:50.390Z,19.10
2018-09-11T21:05:18.804Z,19.10
2018-09-11T21:07:47.164Z,19.10
2018-09-11T21:10:15.559Z,19.10
2018-09-11T21:12:44.004Z,19.10
2018-09-11T21:15:12.454Z,19.10
2018-09-11T21:17:40.824Z,19.10
2018-09-11T21:20:09.238Z,19.10
2018-09-11T21:22:37.636Z,19.20
2018-09-11T21:25:06.095Z,19.10
2018-09-11T21:27:34.505Z,19.10
2018-09-11T21:30:02.980Z,19.20
2018-09-11T21:32:31.360Z,19.10
2018-09-11T21:35:00.883Z,19.10
2018-09-11T21:37:29.357Z,19.10
2018-09-11T21:39:57.774Z,19.10
2018-09-11T21:42:26.184Z,19.10
2018-09-11T21:44:54.642Z,19.10
2018-09-11T21:47:23.088Z,19.10
2018-09-11T21:49:51.481Z,19.10
2018-09-11T21:52:19.877Z,19.10
2018-09-11T21:54:48.368Z,19.10
2018-09-11T21:57:16.752Z,19.10
2018-09-11T21:59:45.177Z,19.10
2018-09-11T22:02:13.541Z,19.10
2018-09-11T22:04:41.986Z,19.10
2018-09-11T22:07:10.379Z,19.10
2018-09-11T22:09:38.754Z,19.10
2018-09-11T22:12:07.250Z,19.10
2018-09-11T22:14:35.666Z,19.10
2018-09-11T22:17:04.108Z,19.00
2018-09-11T22:19:32.516Z,19.00
2018-09-11T22:22:01.357Z,19.00
2018-09-11T22:24:29.768Z,19.00
2018-09-11T22:26:58.160Z,19.00
2018-09-11T22:29:26.549Z,19.00
2018-09-11T22:31:55.025Z,19.00
2018-09-11T22:34:23.501Z,19.00
2018-09-11T22:36:51.862Z,19.00
2018-09-11T22:39:20.249Z,19.00
2018-09-11T22:41:48.652Z,19.00
2018-09-11T22:44:17.108Z,19.00
2018-09-11T22:46:45.692Z,19.00
2018-09-11T22:49:14.092Z,19.00
2018-09-11T22:51:42.628Z,19.00
2018-09-11T22:54:11.017Z,19.00
2018-09-11T22:56:39.447Z,19.00
2018-09-11T22:59:07.903Z,19.00
2018-09-11T23:01:36.335Z,19.00
2018-09-11T23:04:04.825Z,19.00
2018-09-11T23:06:33.264Z,19.00
2018-09-11T23:09:01.860Z,19.00
2018-09-11T23:11:30.312Z,19.00
2018-09-11T23:13:58.690Z,19.00
2018-09-11T23:16:27.179Z,19.00
2018-09-11T23:18:55.614Z,19.00
2018-09-11T23:21:23.969Z,19.00
2018-09-11T23:23:52.352Z,19.00
2018-09-11T23:26:20.800Z,19.00
2018-09-11T23:28:49.349Z,19.00
2018-09-11T23:31:17.817Z,18.90
2018-09-11T23:33:46.175Z,18.90
2018-09-11T23:36:14.590Z,18.70
2018-09-11T23:38:43.060Z,18.70
2018-09-11T23:41:11.472Z,18.60
2018-09-11T23:43:39.901Z,18.50
2018-09-11T23:46:08.362Z,18.40
2018-09-11T23:48:36.769Z,18.30
2018-09-11T23:51:05.204Z,18.20
2018-09-11T23:53:33.632Z,18.10
2018-09-11T23:56:02.471Z,18.00
2018-09-11T23:58:30.865Z,17.80
